Time;durP1;ratioP1;P1;durP2;ratioP2;P2;SDS_P1;SDS_P2;PMS_P1;PMS_P2;Temp;Humidity;BMP_temperature;BMP_pressure;BME280_temperature;BME280_humidity;BME280_pressure;Samples;Min_cycle;Max_cycle;Signal;HPM_P1;HPM_P2
2022/04/17 00:00:35;;;;;;;4.30;2.03;;;;;;;;;;5035919;28;20032;-76
2022/04/17 00:03:01;;;;;;;5.18;2.20;;;;;;;;;;5023673;28;20092;-76
2022/04/17 00:05:28;;;;;;;5.75;2.10;;;;;;;;;;5025115;28;20120;-76
2022/04/17 00:07:54;;;;;;;6.00;2.05;;;;;;;;;;5030444;28;20156;-76
2022/04/17 00:10:21;;;;;;;5.07;2.17;;;;;;;;;;5029763;28;20045;-76
2022/04/17 00:12:48;;;;;;;4.82;1.95;;;;;;;;;;5030126;28;20120;-76
2022/04/17 00:15:14;;;;;;;4.72;1.52;;;;;;;;;;5020007;28;20075;-75
2022/04/17 00:17:43;;;;;;;3.85;1.80;;;;;;;;;;5023611;28;20033;-76
2022/04/17 00:20:13;;;;;;;3.75;1.98;;;;;;;;;;5030241;28;20056;-76
2022/04/17 00:22:39;;;;;;;4.30;1.77;;;;;;;;;;5037900;28;20508;-76
2022/04/17 00:25:07;;;;;;;4.68;2.30;;;;;;;;;;5036738;28;20164;-76
2022/04/17 00:27:33;;;;;;;5.68;2.72;;;;;;;;;;5020799;28;20047;-75
2022/04/17 00:29:59;;;;;;;6.90;2.28;;;;;;;;;;5030178;28;20450;-76
2022/04/17 00:32:25;;;;;;;4.03;2.13;;;;;;;;;;5026761;28;20014;-76
2022/04/17 00:34:51;;;;;;;5.15;1.85;;;;;;;;;;5029770;28;20041;-76
2022/04/17 00:37:17;;;;;;;5.25;2.83;;;;;;;;;;5017869;28;20076;-76
2022/04/17 00:39:43;;;;;;;5.78;2.45;;;;;;;;;;5030612;28;20113;-76
2022/04/17 00:42:10;;;;;;;6.18;3.10;;;;;;;;;;5015137;28;20025;-76
2022/04/17 00:44:39;;;;;;;5.50;2.88;;;;;;;;;;5029613;28;20038;-76
2022/04/17 00:47:05;;;;;;;5.00;2.92;;;;;;;;;;5048517;28;20059;-76
2022/04/17 00:49:32;;;;;;;7.55;4.05;;;;;;;;;;5009826;28;20045;-76
2022/04/17 00:51:58;;;;;;;6.25;3.03;;;;;;;;;;5026687;28;20554;-76
2022/04/17 00:54:25;;;;;;;7.10;3.80;;;;;;;;;;5029855;28;20045;-76
2022/04/17 00:56:51;;;;;;;6.75;3.72;;;;;;;;;;5029134;28;20071;-76
2022/04/17 00:59:18;;;;;;;6.30;3.53;;;;;;;;;;5026227;28;20456;-76
2022/04/17 01:01:44;;;;;;;5.82;4.10;;;;;;;;;;5028000;28;20040;-76
2022/04/17 01:04:10;;;;;;;10.35;6.70;;;;;;;;;;5026014;28;20075;-76
2022/04/17 01:06:39;;;;;;;6.80;3.35;;;;;;;;;;5028813;28;20572;-76
2022/04/17 01:09:06;;;;;;;9.38;4.13;;;;;;;;;;5029662;28;20033;-76
2022/04/17 01:11:32;;;;;;;6.25;3.50;;;;;;;;;;5038389;28;20033;-76
2022/04/17 01:13:59;;;;;;;7.30;3.35;;;;;;;;;;5016770;28;20084;-76
2022/04/17 01:16:26;;;;;;;8.15;3.13;;;;;;;;;;5008439;28;20061;-76
2022/04/17 01:19:00;;;;;;;7.05;3.10;;;;;;;;;;5029384;28;20064;-76
2022/04/17 01:21:27;;;;;;;5.22;2.80;;;;;;;;;;5011332;28;20475;-76
2022/04/17 01:26:57;;;;;;;5.63;3.00;;;;;;;;;;5013043;28;20053;-76
2022/04/17 01:29:27;;;;;;;5.80;3.28;;;;;;;;;;5020881;28;20061;-76
2022/04/17 01:31:54;;;;;;;5.28;3.20;;;;;;;;;;5023020;28;20558;-76
2022/04/17 01:34:22;;;;;;;4.38;3.13;;;;;;;;;;5021039;28;20128;-76
2022/04/17 01:36:49;;;;;;;6.72;2.92;;;;;;;;;;5019260;28;20041;-76
2022/04/17 01:39:15;;;;;;;4.88;2.60;;;;;;;;;;5016968;28;20049;-76
2022/04/17 01:41:41;;;;;;;5.05;2.63;;;;;;;;;;5009020;28;20038;-76
2022/04/17 01:44:07;;;;;;;6.95;3.45;;;;;;;;;;5027064;28;20415;-76
2022/04/17 01:46:34;;;;;;;4.63;2.75;;;;;;;;;;5013983;28;20514;-76
2022/04/17 01:49:00;;;;;;;5.40;2.60;;;;;;;;;;5024203;28;20029;-76
2022/04/17 01:51:27;;;;;;;5.60;2.80;;;;;;;;;;5010760;28;20037;-76
2022/04/17 01:53:53;;;;;;;5.97;2.63;;;;;;;;;;5028445;28;20033;-76
2022/04/17 01:56:19;;;;;;;4.65;2.75;;;;;;;;;;5028925;28;20095;-75
2022/04/17 01:58:45;;;;;;;5.00;2.25;;;;;;;;;;5025493;28;20065;-76
2022/04/17 02:01:11;;;;;;;4.75;2.28;;;;;;;;;;5025006;28;20444;-76
2022/04/17 02:03:37;;;;;;;4.68;2.30;;;;;;;;;;5030293;28;20025;-76
2022/04/17 02:06:03;;;;;;;6.68;3.00;;;;;;;;;;5024712;28;20033;-76
2022/04/17 02:08:29;;;;;;;8.27;4.25;;;;;;;;;;5017036;28;20052;-76
2022/04/17 02:10:56;;;;;;;14.18;7.25;;;;;;;;;;5011514;28;20033;-76
2022/04/17 02:13:25;;;;;;;20.23;10.05;;;;;;;;;;5018448;28;20047;-76
2022/04/17 02:15:53;;;;;;;19.67;10.93;;;;;;;;;;5021965;28;20038;-76
2022/04/17 02:18:20;;;;;;;10.77;6.47;;;;;;;;;;4998584;28;20117;-76
2022/04/17 02:20:47;;;;;;;9.70;5.47;;;;;;;;;;5015869;28;20482;-75
2022/04/17 02:23:13;;;;;;;8.30;4.68;;;;;;;;;;5023789;28;20108;-76
2022/04/17 02:25:39;;;;;;;7.18;4.28;;;;;;;;;;5028632;28;20447;-76
2022/04/17 02:28:05;;;;;;;6.30;4.10;;;;;;;;;;5032548;28;20040;-76
2022/04/17 02:30:31;;;;;;;7.57;3.38;;;;;;;;;;5022948;28;20040;-76
2022/04/17 02:32:57;;;;;;;5.97;3.15;;;;;;;;;;5032609;28;20355;-76
2022/04/17 02:35:23;;;;;;;5.90;3.10;;;;;;;;;;5031428;28;20036;-76
2022/04/17 02:37:49;;;;;;;5.20;3.10;;;;;;;;;;5032470;28;20048;-76
2022/04/17 02:40:15;;;;;;;6.90;3.08;;;;;;;;;;5031653;28;20418;-76
2022/04/17 02:42:42;;;;;;;7.38;3.50;;;;;;;;;;5032227;28;20065;-76
2022/04/17 02:45:09;;;;;;;7.65;3.33;;;;;;;;;;5028215;28;20024;-76
2022/04/17 02:47:44;;;;;;;5.80;3.63;;;;;;;;;;5051057;28;20104;-76
2022/04/17 02:50:10;;;;;;;5.03;3.17;;;;;;;;;;5051636;28;20083;-76
2022/04/17 02:52:37;;;;;;;6.55;3.35;;;;;;;;;;5032963;28;20033;-76
2022/04/17 02:55:03;;;;;;;10.63;3.92;;;;;;;;;;5031881;28;20095;-76
2022/04/17 02:57:30;;;;;;;6.63;3.67;;;;;;;;;;5045545;28;20490;-76
2022/04/17 02:59:56;;;;;;;6.05;3.35;;;;;;;;;;5015759;28;20080;-76
2022/04/17 03:07:52;;;;;;;8.35;4.05;;;;;;;;;;5021214;28;20172;-76
2022/04/17 03:10:18;;;;;;;6.43;3.35;;;;;;;;;;5031912;28;20076;-76
2022/04/17 03:12:45;;;;;;;5.47;2.83;;;;;;;;;;5031921;28;20430;-76
2022/04/17 03:15:11;;;;;;;5.78;3.47;;;;;;;;;;5030742;28;20041;-76
2022/04/17 03:17:37;;;;;;;6.40;3.47;;;;;;;;;;5031250;28;20033;-76
2022/04/17 03:20:03;;;;;;;7.13;4.22;;;;;;;;;;5029519;28;20029;-76
2022/04/17 03:22:29;;;;;;;12.70;4.30;;;;;;;;;;5022818;28;20053;-76
2022/04/17 03:24:55;;;;;;;8.88;4.53;;;;;;;;;;5023939;28;20471;-76
2022/04/17 03:27:22;;;;;;;6.00;3.40;;;;;;;;;;5031325;28;20033;-76
2022/04/17 03:29:48;;;;;;;6.32;3.70;;;;;;;;;;5031390;28;20075;-76
2022/04/17 03:32:14;;;;;;;4.35;2.67;;;;;;;;;;5031314;28;20116;-76
2022/04/17 03:34:40;;;;;;;4.70;2.63;;;;;;;;;;5031143;28;20026;-76
2022/04/17 03:37:06;;;;;;;7.82;2.30;;;;;;;;;;5030079;28;20063;-76
2022/04/17 03:39:32;;;;;;;3.72;2.42;;;;;;;;;;5023377;28;20034;-76
2022/04/17 03:41:58;;;;;;;4.28;2.15;;;;;;;;;;5031132;28;20140;-76
2022/04/17 03:44:24;;;;;;;6.10;2.47;;;;;;;;;;5012103;28;20093;-76
2022/04/17 03:46:51;;;;;;;4.18;2.40;;;;;;;;;;5027108;28;20462;-76
2022/04/17 03:49:17;;;;;;;4.55;2.30;;;;;;;;;;5013093;28;20029;-76
2022/04/17 03:51:43;;;;;;;5.25;2.63;;;;;;;;;;5021843;28;20065;-76
2022/04/17 03:54:09;;;;;;;5.82;3.45;;;;;;;;;;5031308;28;20029;-76
2022/04/17 03:56:35;;;;;;;7.72;3.70;;;;;;;;;;5027372;28;20044;-76
2022/04/17 03:59:01;;;;;;;13.40;5.25;;;;;;;;;;5024626;28;20033;-76
2022/04/17 04:01:28;;;;;;;10.07;5.57;;;;;;;;;;5031202;28;20103;-76
2022/04/17 04:03:55;;;;;;;10.32;6.18;;;;;;;;;;5028300;28;20029;-76
2022/04/17 04:06:21;;;;;;;14.13;6.60;;;;;;;;;;5030786;28;20037;-76
2022/04/17 04:08:50;;;;;;;9.80;5.28;;;;;;;;;;5029491;28;20061;-76
2022/04/17 04:11:17;;;;;;;9.57;5.57;;;;;;;;;;5025125;28;20057;-76
2022/04/17 04:13:43;;;;;;;10.60;6.15;;;;;;;;;;5027907;28;20470;-76
2022/04/17 04:16:09;;;;;;;16.40;9.57;;;;;;;;;;5041745;28;20068;-76
2022/04/17 04:18:35;;;;;;;29.73;16.23;;;;;;;;;;5015044;28;20061;-76
2022/04/17 04:21:01;;;;;;;21.63;12.65;;;;;;;;;;5030225;28;20067;-76
2022/04/17 04:23:31;;;;;;;16.02;8.95;;;;;;;;;;5025939;28;20775;-76
2022/04/17 04:25:57;;;;;;;15.88;7.85;;;;;;;;;;5020266;28;20068;-76
2022/04/17 04:28:38;;;;;;;13.48;7.18;;;;;;;;;;5018312;28;20044;-76
2022/04/17 04:31:05;;;;;;;11.52;6.95;;;;;;;;;;5017283;28;20046;-76
2022/04/17 04:33:31;;;;;;;13.27;5.75;;;;;;;;;;5019474;28;20026;-75
2022/04/17 04:35:59;;;;;;;10.80;5.97;;;;;;;;;;5020394;28;20037;-76
2022/04/17 04:38:25;;;;;;;10.60;5.60;;;;;;;;;;5022886;28;20030;-75
2022/04/17 04:40:51;;;;;;;8.38;4.68;;;;;;;;;;5026408;28;20037;-75
2022/04/17 04:43:17;;;;;;;6.88;3.65;;;;;;;;;;5030128;28;20025;-76
2022/04/17 04:51:14;;;;;;;4.85;3.03;;;;;;;;;;5026465;28;20825;-76
2022/04/17 04:53:40;;;;;;;7.15;3.35;;;;;;;;;;5030241;28;20573;-76
2022/04/17 04:56:07;;;;;;;5.10;2.90;;;;;;;;;;5025401;28;20116;-76
2022/04/17 04:58:33;;;;;;;5.85;2.63;;;;;;;;;;5023773;28;20036;-76
2022/04/17 05:00:59;;;;;;;4.80;2.70;;;;;;;;;;5015088;28;20040;-76
2022/04/17 05:03:25;;;;;;;5.13;1.92;;;;;;;;;;5028424;28;20038;-75
2022/04/17 05:05:51;;;;;;;5.50;2.65;;;;;;;;;;5015187;28;20141;-75
2022/04/17 05:08:21;;;;;;;6.78;2.83;;;;;;;;;;5031716;28;20033;-75
2022/04/17 05:10:47;;;;;;;4.88;2.67;;;;;;;;;;5019653;28;20439;-76
2022/04/17 05:13:13;;;;;;;5.25;2.60;;;;;;;;;;5020074;28;20597;-76
2022/04/17 05:15:39;;;;;;;8.05;2.95;;;;;;;;;;5007776;28;20479;-76
2022/04/17 05:18:06;;;;;;;5.00;2.83;;;;;;;;;;5028383;28;20109;-76
2022/04/17 05:20:35;;;;;;;5.25;3.00;;;;;;;;;;5029173;28;20037;-75
2022/04/17 05:23:15;;;;;;;6.65;3.58;;;;;;;;;;5034907;28;20527;-76
2022/04/17 05:25:42;;;;;;;7.00;3.20;;;;;;;;;;5028575;28;20462;-76
2022/04/17 05:28:08;;;;;;;5.68;3.30;;;;;;;;;;5023813;28;20524;-76
2022/04/17 05:30:34;;;;;;;6.45;4.15;;;;;;;;;;5011547;28;20037;-76
2022/04/17 05:33:00;;;;;;;7.18;4.18;;;;;;;;;;5027174;28;20471;-76
2022/04/17 05:35:26;;;;;;;7.15;3.50;;;;;;;;;;5029148;28;20030;-76
2022/04/17 05:37:52;;;;;;;4.75;2.88;;;;;;;;;;5028795;28;20107;-76
2022/04/17 05:40:18;;;;;;;7.70;3.25;;;;;;;;;;5014948;28;20439;-76
2022/04/17 05:42:44;;;;;;;6.60;3.30;;;;;;;;;;5027315;28;20467;-76
2022/04/17 05:45:11;;;;;;;6.70;3.55;;;;;;;;;;5029061;28;20044;-76
2022/04/17 05:47:37;;;;;;;5.88;3.08;;;;;;;;;;5026559;28;20029;-76
2022/04/17 05:50:05;;;;;;;10.10;4.50;;;;;;;;;;5019973;28;20072;-76
2022/04/17 05:52:31;;;;;;;9.13;4.57;;;;;;;;;;5022313;28;20055;-76
2022/04/17 05:55:00;;;;;;;8.23;3.20;;;;;;;;;;5028945;28;20088;-76
2022/04/17 05:57:26;;;;;;;7.32;3.53;;;;;;;;;;5028008;28;20565;-76
2022/04/17 05:59:52;;;;;;;8.38;3.42;;;;;;;;;;5026688;28;20121;-76
2022/04/17 06:02:18;;;;;;;5.40;2.78;;;;;;;;;;5020628;28;20048;-76
2022/04/17 06:04:44;;;;;;;6.30;3.03;;;;;;;;;;5033172;28;20080;-75
2022/04/17 06:07:10;;;;;;;5.57;3.50;;;;;;;;;;5014106;28;20075;-76
2022/04/17 06:09:36;;;;;;;6.03;3.65;;;;;;;;;;5013524;28;20081;-76
2022/04/17 06:12:02;;;;;;;6.90;4.20;;;;;;;;;;5023489;28;20041;-76
2022/04/17 06:14:28;;;;;;;7.95;3.30;;;;;;;;;;5033028;28;20069;-76
2022/04/17 06:16:54;;;;;;;8.52;3.50;;;;;;;;;;5024078;28;20072;-76
2022/04/17 06:19:21;;;;;;;6.32;3.65;;;;;;;;;;5021166;28;20069;-76
2022/04/17 06:21:47;;;;;;;5.35;3.58;;;;;;;;;;5026046;28;20757;-76
2022/04/17 06:24:13;;;;;;;6.57;4.28;;;;;;;;;;5023572;28;20077;-76
2022/04/17 06:26:39;;;;;;;6.55;4.22;;;;;;;;;;5023935;28;20065;-76
2022/04/17 06:29:08;;;;;;;6.55;4.20;;;;;;;;;;5031678;28;20037;-76
2022/04/17 06:31:34;;;;;;;6.60;4.40;;;;;;;;;;5028877;28;20691;-76
2022/04/17 06:34:01;;;;;;;12.52;4.10;;;;;;;;;;5018918;28;20034;-76
2022/04/17 06:36:27;;;;;;;5.43;3.40;;;;;;;;;;5013543;28;20026;-76
2022/04/17 06:38:53;;;;;;;5.75;3.55;;;;;;;;;;5031373;28;20478;-76
2022/04/17 06:41:19;;;;;;;6.57;4.22;;;;;;;;;;5049097;28;20610;-76
2022/04/17 06:43:45;;;;;;;8.05;3.92;;;;;;;;;;5032096;28;20029;-76
2022/04/17 06:46:11;;;;;;;7.57;3.53;;;;;;;;;;5039994;28;20044;-76
2022/04/17 06:48:37;;;;;;;7.60;3.85;;;;;;;;;;5022784;28;20743;-76
2022/04/17 06:51:03;;;;;;;6.40;3.97;;;;;;;;;;5031861;28;20048;-76
2022/04/17 06:53:29;;;;;;;9.52;4.55;;;;;;;;;;5031069;28;20459;-76
2022/04/17 06:55:55;;;;;;;6.45;3.65;;;;;;;;;;5025673;28;20061;-76
2022/04/17 06:58:21;;;;;;;5.68;3.45;;;;;;;;;;5027432;28;20352;-76
2022/04/17 07:00:51;;;;;;;7.85;3.95;;;;;;;;;;5027473;28;20038;-76
2022/04/17 07:03:17;;;;;;;5.93;3.70;;;;;;;;;;5030833;28;20041;-76
2022/04/17 07:05:44;;;;;;;5.45;3.78;;;;;;;;;;5026805;28;20033;-76
2022/04/17 07:08:10;;;;;;;7.00;3.55;;;;;;;;;;5027352;28;20065;-76
2022/04/17 07:10:37;;;;;;;6.72;4.13;;;;;;;;;;5023273;28;20069;-76
2022/04/17 07:13:03;;;;;;;6.15;3.88;;;;;;;;;;5016016;28;20128;-76
2022/04/17 07:15:29;;;;;;;6.85;4.13;;;;;;;;;;5031386;28;20430;-76
2022/04/17 07:17:56;;;;;;;8.18;4.10;;;;;;;;;;5029407;28;20029;-77
2022/04/17 07:20:24;;;;;;;7.25;3.80;;;;;;;;;;5023355;28;20041;-76
2022/04/17 07:22:50;;;;;;;7.88;3.38;;;;;;;;;;5024500;28;20029;-76
2022/04/17 07:25:17;;;;;;;6.53;4.13;;;;;;;;;;5027005;28;20056;-76
2022/04/17 07:27:44;;;;;;;5.00;3.33;;;;;;;;;;5023678;28;20021;-76
2022/04/17 07:30:30;;;;;;;7.97;3.60;;;;;;;;;;5022268;28;20080;-76
2022/04/17 07:32:58;;;;;;;5.70;4.07;;;;;;;;;;5026261;28;20061;-76
2022/04/17 07:35:25;;;;;;;6.82;3.58;;;;;;;;;;5019787;28;20041;-76
2022/04/17 07:37:54;;;;;;;6.20;4.15;;;;;;;;;;5018700;28;20037;-76
2022/04/17 07:40:25;;;;;;;6.88;3.88;;;;;;;;;;5020056;28;20044;-75
2022/04/17 07:42:51;;;;;;;7.10;3.67;;;;;;;;;;5014645;28;20025;-76
2022/04/17 07:45:18;;;;;;;6.43;3.95;;;;;;;;;;5025419;28;20034;-76
2022/04/17 07:47:44;;;;;;;6.47;4.43;;;;;;;;;;5024787;28;20021;-76
2022/04/17 07:50:14;;;;;;;6.85;4.50;;;;;;;;;;5018561;28;20472;-75
2022/04/17 07:52:41;;;;;;;5.60;3.53;;;;;;;;;;5019331;28;20032;-76
2022/04/17 07:55:08;;;;;;;6.28;3.30;;;;;;;;;;5027446;28;20491;-76
2022/04/17 08:00:21;;;;;;;6.97;3.95;;;;;;;;;;5020703;28;20064;-76
2022/04/17 08:02:53;;;;;;;6.13;3.35;;;;;;;;;;5026612;28;20439;-76
2022/04/17 08:05:19;;;;;;;5.00;3.13;;;;;;;;;;5029849;28;20116;-76
2022/04/17 08:07:45;;;;;;;6.68;4.07;;;;;;;;;;5023613;28;20104;-76
2022/04/17 08:10:11;;;;;;;5.72;3.67;;;;;;;;;;5023987;28;20204;-76
2022/04/17 08:12:37;;;;;;;5.72;3.58;;;;;;;;;;5022121;28;20029;-76
2022/04/17 08:15:03;;;;;;;6.43;4.13;;;;;;;;;;5021853;28;20030;-77
2022/04/17 08:17:29;;;;;;;8.27;5.45;;;;;;;;;;5025096;28;20039;-76
2022/04/17 08:19:55;;;;;;;6.50;4.25;;;;;;;;;;5024924;28;20116;-76
2022/04/17 08:22:21;;;;;;;8.48;4.68;;;;;;;;;;5016242;28;20463;-76
2022/04/17 08:24:47;;;;;;;7.18;4.45;;;;;;;;;;5021928;28;20053;-76
2022/04/17 08:27:13;;;;;;;6.35;4.07;;;;;;;;;;5017364;28;20483;-76
2022/04/17 08:29:39;;;;;;;6.78;4.05;;;;;;;;;;5019538;28;20030;-76
2022/04/17 08:32:06;;;;;;;6.68;3.75;;;;;;;;;;5025292;28;20069;-76
2022/04/17 08:34:32;;;;;;;4.82;3.30;;;;;;;;;;5019210;28;20041;-76
2022/04/17 08:36:58;;;;;;;5.55;3.67;;;;;;;;;;5015728;28;20085;-76
2022/04/17 08:39:24;;;;;;;5.43;3.38;;;;;;;;;;5017970;28;20064;-75
2022/04/17 08:41:50;;;;;;;5.80;3.90;;;;;;;;;;5019045;28;20040;-76
2022/04/17 08:44:16;;;;;;;5.63;3.40;;;;;;;;;;5025269;28;20033;-76
2022/04/17 08:46:42;;;;;;;5.97;3.72;;;;;;;;;;5019983;28;20045;-75
2022/04/17 08:49:11;;;;;;;5.88;3.90;;;;;;;;;;5018079;28;20108;-76
2022/04/17 08:51:38;;;;;;;5.63;3.70;;;;;;;;;;5015625;28;20037;-76
2022/04/17 08:54:06;;;;;;;6.55;3.58;;;;;;;;;;5026367;28;20688;-76
2022/04/17 08:56:32;;;;;;;5.63;3.40;;;;;;;;;;5027303;28;20124;-76
2022/04/17 08:58:58;;;;;;;6.05;3.75;;;;;;;;;;5019466;28;20352;-76
2022/04/17 09:01:24;;;;;;;5.93;3.75;;;;;;;;;;5017602;28;20034;-76
2022/04/17 09:03:50;;;;;;;4.80;3.03;;;;;;;;;;5019730;28;20490;-76
2022/04/17 09:06:20;;;;;;;5.50;3.33;;;;;;;;;;5026456;28;20033;-76
2022/04/17 09:09:05;;;;;;;6.75;4.32;;;;;;;;;;5024082;28;20080;-76
2022/04/17 09:11:32;;;;;;;4.95;3.28;;;;;;;;;;5027429;28;20766;-76
2022/04/17 09:13:59;;;;;;;5.57;3.63;;;;;;;;;;5021246;28;20040;-76
2022/04/17 09:16:34;;;;;;;6.72;4.47;;;;;;;;;;5021926;28;20686;-76
2022/04/17 09:19:11;;;;;;;5.03;3.60;;;;;;;;;;5024140;28;20026;-76
2022/04/17 09:21:37;;;;;;;11.48;3.33;;;;;;;;;;5018412;28;20042;-76
2022/04/17 09:24:38;;;;;;;6.72;3.65;;;;;;;;;;5015906;28;20045;-76
2022/04/17 09:27:05;;;;;;;6.43;3.22;;;;;;;;;;4948124;29;20043;-76
2022/04/17 09:29:38;;;;;;;6.88;3.72;;;;;;;;;;5011844;28;20164;-76
2022/04/17 09:32:08;;;;;;;6.00;3.40;;;;;;;;;;5027714;28;20034;-76
2022/04/17 09:34:50;;;;;;;6.00;3.80;;;;;;;;;;5010664;28;20080;-76
2022/04/17 09:37:20;;;;;;;7.30;4.68;;;;;;;;;;5028193;28;20049;-75
2022/04/17 09:39:47;;;;;;;5.43;3.28;;;;;;;;;;5010906;28;20030;-76
2022/04/17 09:42:13;;;;;;;6.88;3.85;;;;;;;;;;5027555;28;20033;-76
2022/04/17 09:44:47;;;;;;;6.18;3.40;;;;;;;;;;5028851;28;20033;-76
2022/04/17 09:47:23;;;;;;;8.73;4.45;;;;;;;;;;5019032;28;20487;-76
2022/04/17 09:49:54;;;;;;;6.68;3.95;;;;;;;;;;5018350;28;20033;-76
2022/04/17 09:52:20;;;;;;;5.30;3.50;;;;;;;;;;5025298;28;20038;-76
2022/04/17 09:54:47;;;;;;;7.13;3.80;;;;;;;;;;5023781;28;20056;-76
2022/04/17 09:57:18;;;;;;;5.03;3.55;;;;;;;;;;5020581;28;20038;-76
2022/04/17 09:59:44;;;;;;;7.57;4.20;;;;;;;;;;5024239;28;20037;-75
2022/04/17 10:02:12;;;;;;;7.70;3.45;;;;;;;;;;5019290;28;20415;-76
2022/04/17 10:04:39;;;;;;;7.05;4.10;;;;;;;;;;5022441;28;20025;-76
2022/04/17 10:07:05;;;;;;;7.35;3.63;;;;;;;;;;5022007;28;20406;-76
2022/04/17 10:09:32;;;;;;;9.20;4.55;;;;;;;;;;5019055;28;20034;-76
2022/04/17 10:12:00;;;;;;;6.22;4.07;;;;;;;;;;5021216;28;20104;-75
2022/04/17 10:14:28;;;;;;;6.57;3.70;;;;;;;;;;5017321;28;20561;-76
2022/04/17 10:16:55;;;;;;;7.38;4.15;;;;;;;;;;5017745;28;20084;-76
2022/04/17 10:19:25;;;;;;;8.30;4.32;;;;;;;;;;5017540;28;20029;-76
2022/04/17 10:21:51;;;;;;;8.32;4.07;;;;;;;;;;5016073;28;20088;-76
2022/04/17 10:24:18;;;;;;;7.18;4.10;;;;;;;;;;5020019;28;20052;-76
2022/04/17 10:26:51;;;;;;;9.38;5.43;;;;;;;;;;5020168;28;20056;-76
2022/04/17 10:29:20;;;;;;;12.00;5.72;;;;;;;;;;5022375;28;20038;-76
2022/04/17 10:32:04;;;;;;;7.85;4.40;;;;;;;;;;5026917;28;20040;-76
2022/04/17 10:34:51;;;;;;;12.43;4.88;;;;;;;;;;5024343;28;20494;-76
2022/04/17 10:37:35;;;;;;;6.93;4.20;;;;;;;;;;5025585;28;20804;-76
2022/04/17 10:40:02;;;;;;;8.10;5.15;;;;;;;;;;5013254;28;20203;-76
2022/04/17 10:42:35;;;;;;;26.00;17.45;;;;;;;;;;5023016;28;20392;-76
2022/04/17 10:45:07;;;;;;;9.45;6.93;;;;;;;;;;5019998;28;20038;-76
2022/04/17 10:47:33;;;;;;;8.07;5.43;;;;;;;;;;5023744;28;20029;-76
2022/04/17 10:50:00;;;;;;;13.20;6.20;;;;;;;;;;5024203;28;20060;-76
2022/04/17 10:52:31;;;;;;;12.73;9.40;;;;;;;;;;5023514;28;20057;-76
2022/04/17 10:55:07;;;;;;;7.57;4.93;;;;;;;;;;5028177;28;20040;-76
2022/04/17 10:57:43;;;;;;;8.80;5.60;;;;;;;;;;5027088;28;20033;-76
2022/04/17 11:00:28;;;;;;;7.90;4.60;;;;;;;;;;5029130;28;20033;-76
2022/04/17 11:02:54;;;;;;;6.50;4.32;;;;;;;;;;5017996;28;20084;-76
2022/04/17 11:06:09;;;;;;;8.02;4.93;;;;;;;;;;5022108;28;20049;-76
2022/04/17 11:08:29;;;;;;;8.13;4.88;;;;;;;;;;5025032;28;20033;-76
2022/04/17 11:11:01;;;;;;;7.57;5.00;;;;;;;;;;5017081;28;20036;-76
2022/04/17 11:13:27;;;;;;;6.45;4.28;;;;;;;;;;5025146;28;20079;-76
2022/04/17 11:15:55;;;;;;;8.55;4.85;;;;;;;;;;5020605;28;20034;-76
2022/04/17 11:18:24;;;;;;;7.68;4.43;;;;;;;;;;5023495;28;20038;-76
2022/04/17 11:20:54;;;;;;;9.07;4.22;;;;;;;;;;5020551;28;20105;-76
2022/04/17 11:23:39;;;;;;;7.85;4.22;;;;;;;;;;5013939;28;20112;-75
2022/04/17 11:26:05;;;;;;;7.65;4.25;;;;;;;;;;4981210;28;20058;-76
2022/04/17 11:28:38;;;;;;;6.88;4.40;;;;;;;;;;4984388;28;20038;-76
2022/04/17 11:31:04;;;;;;;6.40;4.47;;;;;;;;;;4976630;28;20043;-76
2022/04/17 11:33:30;;;;;;;7.03;4.18;;;;;;;;;;4983320;28;20031;-76
2022/04/17 11:35:57;;;;;;;7.10;4.80;;;;;;;;;;4983830;28;20115;-76
2022/04/17 11:38:23;;;;;;;6.38;4.25;;;;;;;;;;4980034;28;20027;-76
2022/04/17 11:40:49;;;;;;;6.63;4.22;;;;;;;;;;4988691;28;20034;-76
2022/04/17 11:43:16;;;;;;;5.82;4.03;;;;;;;;;;4981980;28;20430;-76
2022/04/17 11:45:43;;;;;;;6.72;4.20;;;;;;;;;;4984178;28;20037;-76
2022/04/17 11:48:10;;;;;;;6.53;3.60;;;;;;;;;;4981933;28;20034;-76
2022/04/17 11:50:37;;;;;;;7.07;3.95;;;;;;;;;;4980514;28;20546;-75
2022/04/17 11:53:04;;;;;;;6.47;4.18;;;;;;;;;;4980147;28;20030;-76
2022/04/17 11:55:32;;;;;;;7.35;4.45;;;;;;;;;;4981157;28;20122;-76
2022/04/17 11:57:59;;;;;;;7.57;4.55;;;;;;;;;;4983860;28;20037;-76
2022/04/17 12:00:26;;;;;;;7.78;4.50;;;;;;;;;;4988047;28;20061;-76
2022/04/17 12:02:59;;;;;;;6.53;4.13;;;;;;;;;;4976549;28;20081;-76
2022/04/17 12:05:25;;;;;;;6.05;4.13;;;;;;;;;;4984692;28;20034;-76
2022/04/17 12:08:02;;;;;;;6.72;4.03;;;;;;;;;;4983164;28;20101;-75
2022/04/17 12:10:29;;;;;;;7.03;4.57;;;;;;;;;;4976933;28;20041;-76
2022/04/17 12:12:55;;;;;;;6.45;4.10;;;;;;;;;;4977163;28;20031;-76
2022/04/17 12:15:21;;;;;;;6.57;4.65;;;;;;;;;;4984726;28;20049;-76
2022/04/17 12:17:58;;;;;;;7.78;4.57;;;;;;;;;;4973924;28;20030;-75
2022/04/17 12:20:24;;;;;;;7.20;4.55;;;;;;;;;;4989293;28;20382;-76
2022/04/17 12:22:51;;;;;;;7.38;4.70;;;;;;;;;;4978221;28;20048;-76
2022/04/17 12:25:17;;;;;;;6.35;4.25;;;;;;;;;;5010465;28;20790;-76
2022/04/17 12:27:45;;;;;;;8.95;4.32;;;;;;;;;;5025512;28;20046;-76
2022/04/17 12:30:11;;;;;;;6.75;4.18;;;;;;;;;;5024298;28;20096;-76
2022/04/17 12:32:47;;;;;;;7.22;4.25;;;;;;;;;;5027340;28;20091;-76
2022/04/17 12:35:20;;;;;;;6.53;4.05;;;;;;;;;;5022443;28;20087;-76
2022/04/17 12:37:46;;;;;;;8.75;4.93;;;;;;;;;;5014971;28;20061;-76
2022/04/17 12:40:14;;;;;;;5.30;3.60;;;;;;;;;;5024096;28;20121;-76
2022/04/17 12:42:40;;;;;;;9.68;4.53;;;;;;;;;;5026039;28;20061;-76
2022/04/17 12:45:08;;;;;;;6.07;3.83;;;;;;;;;;5005517;28;20084;-76
2022/04/17 12:47:36;;;;;;;6.00;3.90;;;;;;;;;;5023409;28;20030;-76
2022/04/17 12:50:09;;;;;;;7.00;4.53;;;;;;;;;;5013051;28;20044;-76
2022/04/17 12:52:35;;;;;;;6.25;3.85;;;;;;;;;;5021565;28;20104;-76
2022/04/17 12:55:08;;;;;;;10.15;4.30;;;;;;;;;;5027748;28;20116;-76
2022/04/17 12:57:34;;;;;;;6.88;4.38;;;;;;;;;;5028284;28;20079;-76
2022/04/17 13:00:00;;;;;;;7.07;4.25;;;;;;;;;;5029467;28;20044;-76
2022/04/17 13:02:27;;;;;;;5.45;3.67;;;;;;;;;;5014123;28;20021;-76
2022/04/17 13:04:54;;;;;;;7.80;3.85;;;;;;;;;;5018358;28;20037;-76
2022/04/17 13:07:20;;;;;;;5.90;3.75;;;;;;;;;;5023564;28;20049;-76
2022/04/17 13:09:50;;;;;;;9.18;3.70;;;;;;;;;;5018766;28;20430;-76
2022/04/17 13:12:32;;;;;;;7.05;3.67;;;;;;;;;;5012943;28;20044;-76
2022/04/17 13:14:58;;;;;;;7.68;4.22;;;;;;;;;;5015031;28;20052;-76
2022/04/17 13:17:24;;;;;;;10.35;4.32;;;;;;;;;;5018653;28;20168;-76
2022/04/17 13:19:51;;;;;;;5.95;3.60;;;;;;;;;;5026352;28;20044;-76
2022/04/17 13:22:17;;;;;;;6.63;4.10;;;;;;;;;;5018620;28;20026;-76
2022/04/17 13:24:44;;;;;;;6.65;3.90;;;;;;;;;;5019173;28;20064;-76
2022/04/17 13:27:11;;;;;;;6.43;3.50;;;;;;;;;;5022595;28;20474;-76
2022/04/17 13:29:37;;;;;;;6.97;4.03;;;;;;;;;;5026648;28;20133;-76
2022/04/17 13:32:04;;;;;;;7.22;3.15;;;;;;;;;;5022100;28;20045;-76
2022/04/17 13:34:33;;;;;;;6.20;4.03;;;;;;;;;;5027699;28;20450;-76
2022/04/17 13:39:43;;;;;;;6.45;3.80;;;;;;;;;;5023261;28;20494;-76
2022/04/17 13:42:09;;;;;;;5.82;3.22;;;;;;;;;;5020132;28;20037;-76
2022/04/17 13:44:38;;;;;;;6.63;3.42;;;;;;;;;;5021967;28;20025;-76
2022/04/17 13:47:04;;;;;;;5.93;3.17;;;;;;;;;;5019681;28;20053;-76
2022/04/17 13:49:30;;;;;;;6.50;2.95;;;;;;;;;;5023317;28;20034;-76
2022/04/17 13:51:56;;;;;;;4.53;3.15;;;;;;;;;;5025253;28;20036;-76
2022/04/17 13:54:22;;;;;;;5.63;3.17;;;;;;;;;;5018236;28;20041;-76
2022/04/17 13:56:48;;;;;;;12.27;2.88;;;;;;;;;;5017908;28;20042;-76
2022/04/17 13:59:14;;;;;;;6.20;3.47;;;;;;;;;;5021880;28;20088;-76
2022/04/17 14:01:40;;;;;;;5.97;3.10;;;;;;;;;;5023260;28;20471;-76
2022/04/17 14:04:06;;;;;;;6.50;2.95;;;;;;;;;;5023948;28;20105;-76
2022/04/17 14:06:32;;;;;;;7.28;3.10;;;;;;;;;;5028121;28;21055;-76
2022/04/17 14:08:59;;;;;;;5.00;2.80;;;;;;;;;;5023985;28;20512;-76
2022/04/17 14:11:25;;;;;;;7.07;2.75;;;;;;;;;;5019320;28;20057;-76
2022/04/17 14:13:51;;;;;;;6.00;3.00;;;;;;;;;;5023856;28;20072;-76
2022/04/17 14:16:17;;;;;;;4.55;2.83;;;;;;;;;;5022944;28;20038;-76
2022/04/17 14:18:43;;;;;;;5.65;3.17;;;;;;;;;;5016126;28;20099;-76
2022/04/17 14:21:09;;;;;;;8.85;2.72;;;;;;;;;;5021719;28;20109;-76
2022/04/17 14:23:35;;;;;;;6.18;2.63;;;;;;;;;;5025454;28;20037;-76
2022/04/17 14:26:01;;;;;;;5.35;2.50;;;;;;;;;;5025730;28;20522;-76
2022/04/17 14:28:27;;;;;;;4.53;2.28;;;;;;;;;;5020445;28;20033;-76
2022/04/17 14:30:53;;;;;;;6.72;2.78;;;;;;;;;;5019834;28;20038;-76
2022/04/17 14:33:19;;;;;;;5.18;2.83;;;;;;;;;;5030557;28;20044;-76
2022/04/17 14:35:45;;;;;;;4.55;2.63;;;;;;;;;;5029396;28;20051;-76
2022/04/17 14:38:11;;;;;;;4.00;2.20;;;;;;;;;;5015021;28;20068;-76
2022/04/17 14:40:37;;;;;;;4.60;2.42;;;;;;;;;;5021764;28;20087;-76
2022/04/17 14:43:03;;;;;;;4.47;2.45;;;;;;;;;;5022465;28;20046;-76
2022/04/17 14:45:29;;;;;;;4.30;2.33;;;;;;;;;;5029178;28;20040;-76
2022/04/17 14:47:55;;;;;;;5.20;2.95;;;;;;;;;;5023788;28;20383;-75
2022/04/17 14:50:22;;;;;;;6.90;2.28;;;;;;;;;;5025268;28;20045;-76
2022/04/17 14:52:49;;;;;;;4.50;2.10;;;;;;;;;;5024642;28;20479;-76
2022/04/17 14:55:15;;;;;;;6.40;2.65;;;;;;;;;;5025913;28;20053;-76
2022/04/17 14:57:41;;;;;;;4.63;2.03;;;;;;;;;;5027216;28;20041;-76
2022/04/17 15:00:08;;;;;;;6.32;2.00;;;;;;;;;;5016563;28;20121;-76
2022/04/17 15:02:35;;;;;;;4.00;1.88;;;;;;;;;;5022821;28;20041;-76